createdAt,value
2018-10-12T00:02:23.042Z,97581.00
2018-10-12T00:04:52.260Z,97598.00
2018-10-12T00:07:21.458Z,97590.00
2018-10-12T00:09:50.678Z,97590.00
2018-10-12T00:12:19.862Z,97588.00
2018-10-12T00:14:49.063Z,97594.00
2018-10-12T00:17:18.248Z,97595.00
2018-10-12T00:19:47.478Z,97598.00
2018-10-12T00:22:16.691Z,97594.00
2018-10-12T00:24:45.961Z,97594.00
2018-10-12T00:27:15.127Z,97594.00
2018-10-12T00:29:44.347Z,97598.00
2018-10-12T00:32:13.539Z,97595.00
2018-10-12T00:34:42.763Z,97591.00
2018-10-12T00:37:11.950Z,97587.00
2018-10-12T00:39:41.149Z,97588.00
2018-10-12T00:42:10.318Z,97596.00
2018-10-12T00:44:39.537Z,97594.00
2018-10-12T00:47:08.730Z,97601.00
2018-10-12T00:49:37.977Z,97597.00
2018-10-12T00:52:07.175Z,97605.00
2018-10-12T00:54:36.398Z,97607.00
2018-10-12T00:57:05.605Z,97608.00
2018-10-12T00:59:34.834Z,97609.00
2018-10-12T01:02:04.022Z,97609.00
2018-10-12T01:04:33.225Z,97612.00
2018-10-12T01:07:02.430Z,97614.00
2018-10-12T01:09:31.628Z,97619.00
2018-10-12T01:12:20.982Z,97623.00
2018-10-12T01:14:50.355Z,97624.00
2018-10-12T01:17:19.558Z,97626.00
2018-10-12T01:22:19.565Z,97631.00
2018-10-12T01:24:48.771Z,97632.00
2018-10-12T01:27:17.963Z,97625.00
2018-10-12T01:29:47.183Z,97624.00
2018-10-12T01:32:21.751Z,97636.00
2018-10-12T01:34:51.209Z,97634.00
2018-10-12T01:37:20.383Z,97627.00
2018-10-12T01:39:49.592Z,97628.00
2018-10-12T01:42:18.779Z,97634.00
2018-10-12T01:44:48.003Z,97643.00
2018-10-12T01:47:17.190Z,97626.00
2018-10-12T01:49:46.393Z,97640.00
2018-10-12T01:52:15.579Z,97632.00
2018-10-12T01:54:44.796Z,97632.00
2018-10-12T01:57:14.278Z,97636.00
2018-10-12T01:59:43.499Z,97648.00
2018-10-12T02:02:12.699Z,97650.00
2018-10-12T02:04:41.962Z,97649.00
2018-10-12T02:07:11.166Z,97649.00
2018-10-12T02:09:40.391Z,97651.00
2018-10-12T02:12:09.589Z,97651.00
2018-10-12T02:14:38.824Z,97630.00
2018-10-12T02:17:08.002Z,97657.00
2018-10-12T02:19:37.222Z,97657.00
2018-10-12T02:22:06.419Z,97653.00
2018-10-12T02:24:35.614Z,97659.00
2018-10-12T02:27:04.801Z,97651.00
2018-10-12T02:29:34.050Z,97663.00
2018-10-12T02:32:03.269Z,97657.00
2018-10-12T02:34:32.503Z,97663.00
2018-10-12T02:37:01.699Z,97661.00
2018-10-12T02:39:30.894Z,97667.00
2018-10-12T02:42:00.099Z,97676.00
2018-10-12T02:44:29.359Z,97670.00
2018-10-12T02:46:58.599Z,97668.00
2018-10-12T02:49:27.835Z,97670.00
2018-10-12T02:51:57.067Z,97673.00
2018-10-12T02:54:26.297Z,97672.00
2018-10-12T02:56:55.533Z,97669.00
2018-10-12T02:59:24.749Z,97675.00
2018-10-12T03:01:53.992Z,97681.00
2018-10-12T03:04:23.307Z,97680.00
2018-10-12T03:06:52.566Z,97686.00
2018-10-12T03:09:21.779Z,97694.00
2018-10-12T03:11:51.058Z,97692.00
2018-10-12T03:14:20.246Z,97696.00
2018-10-12T03:16:49.487Z,97698.00
2018-10-12T03:19:18.670Z,97698.00
2018-10-12T03:21:47.879Z,97712.00
2018-10-12T03:24:17.102Z,97701.00
2018-10-12T03:26:46.350Z,97701.00
2018-10-12T03:29:15.548Z,97707.00
2018-10-12T03:31:44.805Z,97674.00
2018-10-12T03:34:14.046Z,97701.00
2018-10-12T03:36:43.275Z,97691.00
2018-10-12T03:39:12.479Z,97698.00
2018-10-12T03:41:41.698Z,97703.00
2018-10-12T03:44:10.905Z,97705.00
2018-10-12T03:46:40.124Z,97704.00
2018-10-12T03:49:09.314Z,97710.00
2018-10-12T03:51:38.618Z,97705.00
2018-10-12T03:54:07.835Z,97704.00
2018-10-12T03:56:37.037Z,97714.00
2018-10-12T03:59:06.233Z,97731.00
2018-10-12T04:01:35.455Z,97738.00
2018-10-12T04:04:04.658Z,97725.00
2018-10-12T04:06:33.882Z,97729.00
2018-10-12T04:09:03.686Z,97735.00
2018-10-12T04:11:32.859Z,97729.00
2018-10-12T04:14:02.018Z,97747.00
2018-10-12T04:16:31.381Z,97743.00
2018-10-12T04:19:00.611Z,97747.00
2018-10-12T04:21:29.833Z,97744.00
2018-10-12T04:23:59.032Z,97753.00
2018-10-12T04:26:28.214Z,97743.00
2018-10-12T04:28:57.385Z,97750.00
2018-10-12T04:31:26.583Z,97752.00
2018-10-12T04:33:55.779Z,97744.00
2018-10-12T04:36:24.993Z,97742.00
2018-10-12T04:39:10.973Z,97746.00
2018-10-12T04:41:40.223Z,97754.00
2018-10-12T04:44:09.483Z,97752.00
2018-10-12T04:46:42.244Z,97752.00
2018-10-12T04:49:14.071Z,97758.00
2018-10-12T04:51:48.113Z,97749.00
2018-10-12T04:54:17.499Z,97757.00
2018-10-12T04:56:47.250Z,97762.00
2018-10-12T04:59:16.596Z,97769.00
2018-10-12T05:01:45.888Z,97761.00
2018-10-12T05:04:15.151Z,97768.00
2018-10-12T05:06:44.349Z,97774.00
2018-10-12T05:09:14.155Z,97759.00
2018-10-12T05:11:43.730Z,97772.00
2018-10-12T05:14:13.114Z,97773.00
2018-10-12T05:16:42.302Z,97780.00
2018-10-12T05:19:11.497Z,97783.00
2018-10-12T05:21:40.735Z,97777.00
2018-10-12T05:24:09.928Z,97788.00
2018-10-12T05:26:39.167Z,97798.00
2018-10-12T05:29:08.356Z,97805.00
2018-10-12T05:31:37.595Z,97801.00
2018-10-12T05:34:06.776Z,97807.00
2018-10-12T05:36:35.986Z,97801.00
2018-10-12T05:39:08.820Z,97814.00
2018-10-12T05:41:38.118Z,97818.00
2018-10-12T05:44:07.342Z,97823.00
2018-10-12T05:46:36.566Z,97828.00
2018-10-12T05:49:22.810Z,97833.00
2018-10-12T05:51:52.040Z,97841.00
2018-10-12T05:54:21.275Z,97844.00
2018-10-12T05:56:50.504Z,97856.00
2018-10-12T05:59:19.783Z,97859.00
2018-10-12T06:01:49.002Z,97854.00
2018-10-12T06:04:18.217Z,97861.00
2018-10-12T06:06:47.429Z,97855.00
2018-10-12T06:09:16.617Z,97856.00
2018-10-12T06:11:45.818Z,97910.00
2018-10-12T06:14:15.023Z,97866.00
2018-10-12T06:16:44.263Z,97872.00
2018-10-12T06:19:13.463Z,97870.00
2018-10-12T06:21:42.711Z,97870.00
2018-10-12T06:24:11.884Z,97877.00
2018-10-12T06:26:41.142Z,97896.00
2018-10-12T06:29:10.398Z,97886.00
2018-10-12T06:31:39.603Z,97895.00
2018-10-12T06:34:08.794Z,97898.00
2018-10-12T06:36:38.001Z,97900.00
2018-10-12T06:39:07.277Z,97908.00
2018-10-12T06:41:36.579Z,97906.00
2018-10-12T06:44:05.739Z,97923.00
2018-10-12T06:46:34.975Z,97929.00
2018-10-12T06:49:04.170Z,97936.00
2018-10-12T06:51:33.394Z,97936.00
2018-10-12T06:54:02.675Z,97941.00
2018-10-12T06:56:33.048Z,97942.00
2018-10-12T06:59:02.414Z,97951.00
2018-10-12T07:01:31.737Z,97957.00
2018-10-12T07:04:00.926Z,97956.00
2018-10-12T07:06:30.189Z,97960.00
2018-10-12T07:08:59.385Z,97967.00
2018-10-12T07:11:28.620Z,97965.00
2018-10-12T07:13:57.914Z,97971.00
2018-10-12T07:16:27.023Z,97967.00
2018-10-12T07:18:56.234Z,97966.00
2018-10-12T07:21:25.424Z,97972.00
2018-10-12T07:23:54.633Z,97974.00
2018-10-12T07:26:23.811Z,97985.00
2018-10-12T07:28:53.038Z,97978.00
2018-10-12T07:31:22.248Z,97986.00
2018-10-12T07:33:51.494Z,97987.00
2018-10-12T07:36:20.703Z,97991.00
2018-10-12T07:38:49.954Z,97992.00
2018-10-12T07:41:19.203Z,98003.00
2018-10-12T07:43:48.434Z,98009.00
2018-10-12T07:46:17.652Z,98006.00
2018-10-12T07:48:46.907Z,98003.00
2018-10-12T07:51:16.156Z,98009.00
2018-10-12T07:53:45.515Z,98007.00
2018-10-12T07:56:14.695Z,98015.00
2018-10-12T07:58:43.912Z,98015.00
2018-10-12T08:01:13.130Z,98023.00
2018-10-12T08:03:42.326Z,98016.00
2018-10-12T08:06:11.554Z,98018.00
2018-10-12T08:08:40.750Z,98022.00
2018-10-12T08:11:09.966Z,98023.00
2018-10-12T08:13:39.249Z,98021.00
2018-10-12T08:16:08.478Z,98022.00
2018-10-12T08:18:37.711Z,98031.00
2018-10-12T08:21:07.420Z,98029.00
2018-10-12T08:23:37.221Z,98029.00
2018-10-12T08:26:06.539Z,98024.00
2018-10-12T08:28:35.839Z,98047.00
2018-10-12T08:31:05.035Z,98041.00
2018-10-12T08:33:34.285Z,98042.00
2018-10-12T08:36:03.488Z,98048.00
2018-10-12T08:38:32.720Z,98049.00
2018-10-12T08:41:01.918Z,98056.00
2018-10-12T08:43:31.216Z,98043.00
2018-10-12T08:46:00.527Z,98057.00
2018-10-12T08:48:29.788Z,98051.00
2018-10-12T08:50:59.019Z,98055.00
2018-10-12T08:53:28.218Z,98056.00
2018-10-12T08:55:57.402Z,98049.00
2018-10-12T08:58:26.602Z,98054.00
2018-10-12T09:00:55.811Z,98055.00
2018-10-12T09:03:25.014Z,98065.00
2018-10-12T09:05:54.252Z,98064.00
2018-10-12T09:08:23.679Z,98075.00
2018-10-12T09:10:52.891Z,98069.00
2018-10-12T09:13:22.127Z,98076.00
2018-10-12T09:15:51.543Z,98075.00
2018-10-12T09:18:20.763Z,98085.00
2018-10-12T09:20:50.063Z,98070.00
2018-10-12T09:23:19.326Z,98078.00
2018-10-12T09:25:48.542Z,98071.00
2018-10-12T09:28:17.762Z,98083.00
2018-10-12T09:30:46.947Z,98078.00
2018-10-12T09:33:16.159Z,98076.00
2018-10-12T09:35:45.555Z,98076.00
2018-10-12T09:38:14.790Z,98077.00
2018-10-12T09:40:44.012Z,98078.00
2018-10-12T09:43:13.344Z,98076.00
2018-10-12T09:45:42.568Z,98090.00
2018-10-12T09:48:11.793Z,98077.00
2018-10-12T09:50:40.996Z,98080.00
2018-10-12T09:53:10.315Z,98085.00
2018-10-12T09:55:39.562Z,98081.00
2018-10-12T09:58:09.098Z,98083.00
2018-10-12T10:00:43.521Z,98083.00
2018-10-12T10:04:18.155Z,98083.00
2018-10-12T10:06:47.342Z,98084.00
2018-10-12T10:09:16.561Z,98077.00
2018-10-12T10:11:45.748Z,98087.00
2018-10-12T10:14:14.967Z,98119.00
2018-10-12T10:16:44.177Z,98078.00
2018-10-12T10:19:13.409Z,98087.00
2018-10-12T10:21:42.600Z,98097.00
2018-10-12T10:24:11.803Z,98096.00
2018-10-12T10:26:40.983Z,98094.00
2018-10-12T10:29:10.219Z,98094.00
2018-10-12T10:31:39.417Z,98089.00
2018-10-12T10:34:08.665Z,98093.00
2018-10-12T10:36:37.965Z,98095.00
2018-10-12T10:39:09.636Z,98090.00
2018-10-12T10:41:38.822Z,98097.00
2018-10-12T10:44:08.060Z,98105.00
2018-10-12T10:46:37.243Z,98103.00
2018-10-12T10:49:06.737Z,98094.00
2018-10-12T10:51:35.980Z,98104.00
2018-10-12T10:54:05.179Z,98096.00
2018-10-12T10:56:34.348Z,98098.00
2018-10-12T10:59:03.555Z,98089.00
2018-10-12T11:01:32.723Z,98086.00
2018-10-12T11:04:01.928Z,98096.00
2018-10-12T11:06:31.121Z,98085.00
2018-10-12T11:09:00.327Z,98097.00
2018-10-12T11:11:29.514Z,98085.00
2018-10-12T11:13:58.719Z,98092.00
2018-10-12T11:16:27.915Z,98087.00
2018-10-12T11:18:57.107Z,98087.00
2018-10-12T11:21:26.290Z,98096.00
2018-10-12T11:23:55.589Z,98093.00
2018-10-12T11:26:24.851Z,98095.00
2018-10-12T11:28:54.047Z,98084.00
2018-10-12T11:31:23.239Z,98083.00
2018-10-12T11:33:52.522Z,97891.00
2018-10-12T11:36:21.792Z,98089.00
2018-10-12T11:38:51.006Z,98086.00
2018-10-12T11:41:20.235Z,98087.00
2018-10-12T11:43:49.445Z,98089.00
2018-10-12T11:46:18.643Z,98093.00
2018-10-12T11:48:47.886Z,98091.00
2018-10-12T11:51:17.095Z,98093.00
2018-10-12T11:53:46.287Z,98086.00
2018-10-12T11:56:15.486Z,98087.00
2018-10-12T11:58:44.717Z,98083.00
2018-10-12T12:01:14.559Z,98089.00
2018-10-12T12:03:43.811Z,98086.00
2018-10-12T12:06:13.032Z,98074.00
2018-10-12T12:08:42.293Z,98074.00
2018-10-12T12:11:11.487Z,98077.00
2018-10-12T12:13:40.747Z,98074.00
2018-10-12T12:16:09.940Z,98069.00
2018-10-12T12:18:39.111Z,98073.00
2018-10-12T12:21:08.319Z,98066.00
2018-10-12T12:23:37.535Z,98069.00
2018-10-12T12:26:06.989Z,98075.00
2018-10-12T12:28:36.187Z,98075.00
2018-10-12T12:31:05.432Z,98078.00
2018-10-12T12:33:34.631Z,98080.00
2018-10-12T12:36:04.288Z,98081.00
2018-10-12T12:38:33.294Z,98079.00
2018-10-12T12:41:02.491Z,98077.00
2018-10-12T12:43:31.659Z,98073.00
2018-10-12T12:46:00.871Z,98067.00
2018-10-12T12:48:30.271Z,98074.00
2018-10-12T12:50:59.293Z,98079.00
2018-10-12T12:53:28.474Z,98074.00
2018-10-12T12:55:57.783Z,98079.00
2018-10-12T12:58:27.100Z,98082.00
2018-10-12T13:00:56.332Z,98079.00
2018-10-12T13:03:25.518Z,98079.00
2018-10-12T13:05:54.739Z,98074.00
2018-10-12T13:08:23.960Z,98082.00
2018-10-12T13:10:53.162Z,98081.00
2018-10-12T13:13:22.510Z,98089.00
2018-10-12T13:15:51.691Z,98089.00
2018-10-12T13:18:20.938Z,98095.00
2018-10-12T13:20:50.158Z,98091.00
2018-10-12T13:23:19.318Z,98099.00
2018-10-12T13:25:48.571Z,98100.00
2018-10-12T13:28:17.745Z,98087.00
2018-10-12T13:30:47.089Z,98105.00
2018-10-12T13:33:16.289Z,98102.00
2018-10-12T13:35:45.527Z,98098.00
2018-10-12T13:38:14.727Z,98086.00
2018-10-12T13:40:44.029Z,98097.00
2018-10-12T13:43:13.252Z,98095.00
2018-10-12T13:45:42.483Z,98091.00
2018-10-12T13:48:11.744Z,98097.00
2018-10-12T13:50:40.947Z,98104.00
2018-10-12T13:53:10.142Z,98100.00
2018-10-12T13:55:39.362Z,98093.00
2018-10-12T13:58:08.594Z,98112.00
2018-10-12T14:00:37.781Z,98106.00
2018-10-12T14:03:07.175Z,98111.00
2018-10-12T14:05:36.379Z,98110.00
2018-10-12T14:08:05.574Z,98110.00
2018-10-12T14:10:34.839Z,98105.00
2018-10-12T14:13:04.021Z,98112.00
2018-10-12T14:15:33.223Z,98102.00
2018-10-12T14:18:02.439Z,98107.00
2018-10-12T14:20:31.666Z,98103.00
2018-10-12T14:23:00.928Z,98098.00
2018-10-12T14:25:30.123Z,98088.00
2018-10-12T14:27:59.291Z,97809.00
2018-10-12T14:30:28.484Z,98098.00
2018-10-12T14:32:57.654Z,98091.00
2018-10-12T14:35:26.843Z,98095.00
2018-10-12T14:37:56.050Z,98093.00
2018-10-12T14:40:25.235Z,98097.00
2018-10-12T14:42:54.406Z,98100.00
2018-10-12T14:45:23.754Z,98111.00
2018-10-12T14:47:52.870Z,98113.00
2018-10-12T14:50:22.130Z,98145.00
2018-10-12T14:52:51.383Z,98105.00
2018-10-12T14:55:20.618Z,98100.00
2018-10-12T14:57:49.798Z,98103.00
2018-10-12T15:00:19.074Z,98097.00
2018-10-12T15:02:48.302Z,98150.00
2018-10-12T15:05:17.527Z,98096.00
2018-10-12T15:07:46.753Z,98097.00
2018-10-12T15:10:16.484Z,98103.00
2018-10-12T15:12:45.681Z,98104.00
2018-10-12T15:15:28.776Z,98124.00
2018-10-12T15:17:58.799Z,98118.00
2018-10-12T15:20:27.995Z,98121.00
2018-10-12T15:23:02.659Z,98112.00
2018-10-12T15:25:31.912Z,98118.00
2018-10-12T15:28:01.132Z,98112.00
2018-10-12T15:30:30.398Z,98112.00
2018-10-12T15:32:59.617Z,98105.00
2018-10-12T15:35:28.830Z,98103.00
2018-10-12T15:37:58.096Z,98104.00
2018-10-12T15:40:27.307Z,98108.00
2018-10-12T15:42:56.625Z,98105.00
2018-10-12T15:45:25.754Z,98111.00
2018-10-12T15:47:55.069Z,98098.00
2018-10-12T15:50:24.293Z,98104.00
2018-10-12T15:52:53.506Z,98108.00
2018-10-12T15:55:22.703Z,98105.00
2018-10-12T15:57:51.921Z,98105.00
2018-10-12T16:00:21.207Z,98108.00
2018-10-12T16:02:50.606Z,98132.00
2018-10-12T16:05:19.820Z,98111.00
2018-10-12T16:07:58.399Z,98122.00
2018-10-12T16:10:34.809Z,98115.00
2018-10-12T16:13:04.226Z,98113.00
2018-10-12T16:15:33.446Z,98116.00
2018-10-12T16:18:34.043Z,98118.00
2018-10-12T16:21:06.230Z,98127.00
2018-10-12T16:23:35.606Z,98126.00
2018-10-12T16:26:16.092Z,98124.00
2018-10-12T16:29:01.473Z,98125.00
2018-10-12T16:31:30.994Z,98137.00
2018-10-12T16:34:00.215Z,98132.00
2018-10-12T16:36:29.487Z,98139.00
2018-10-12T16:38:58.720Z,98145.00
2018-10-12T16:41:28.130Z,98157.00
2018-10-12T16:43:57.340Z,98157.00
2018-10-12T16:46:26.549Z,98153.00
2018-10-12T16:48:55.820Z,98157.00
2018-10-12T16:51:24.989Z,98164.00
2018-10-12T16:53:54.224Z,98171.00
2018-10-12T16:56:23.541Z,98176.00
2018-10-12T16:58:59.433Z,98177.00
2018-10-12T17:01:32.276Z,98180.00
2018-10-12T17:04:01.488Z,98185.00
2018-10-12T17:06:30.822Z,98178.00
2018-10-12T17:08:59.990Z,98191.00
2018-10-12T17:11:29.225Z,98188.00
2018-10-12T17:13:58.398Z,98202.00
2018-10-12T17:16:27.654Z,98197.00
2018-10-12T17:18:56.897Z,98194.00
2018-10-12T17:21:26.194Z,98189.00
2018-10-12T17:23:55.431Z,98196.00
2018-10-12T17:26:24.700Z,98197.00
2018-10-12T17:28:53.934Z,98203.00
2018-10-12T17:31:23.133Z,98198.00
2018-10-12T17:33:52.377Z,98199.00
2018-10-12T17:36:21.658Z,98205.00
2018-10-12T17:38:50.884Z,98209.00
2018-10-12T17:41:21.129Z,98203.00
2018-10-12T17:43:50.348Z,98215.00
2018-10-12T17:46:19.580Z,98207.00
2018-10-12T17:48:48.790Z,98210.00
2018-10-12T17:51:18.036Z,98216.00
2018-10-12T17:53:47.231Z,98205.00
2018-10-12T17:56:16.414Z,98210.00
2018-10-12T17:58:45.625Z,98214.00
2018-10-12T18:01:14.795Z,98194.00
2018-10-12T18:03:44.026Z,98226.00
2018-10-12T18:06:13.195Z,98229.00
2018-10-12T18:08:42.478Z,98230.00
2018-10-12T18:11:11.677Z,98223.00
2018-10-12T18:13:40.923Z,98217.00
2018-10-12T18:16:10.088Z,98231.00
2018-10-12T18:18:39.306Z,98224.00
2018-10-12T18:21:08.620Z,98234.00
2018-10-12T18:23:37.818Z,98237.00
2018-10-12T18:26:07.143Z,98236.00
2018-10-12T18:28:36.423Z,98241.00
2018-10-12T18:31:05.699Z,98234.00
2018-10-12T18:33:34.954Z,98241.00
2018-10-12T18:36:04.214Z,98251.00
2018-10-12T18:38:33.505Z,98242.00
2018-10-12T18:41:02.678Z,98249.00
2018-10-12T18:43:31.951Z,98253.00
2018-10-12T18:46:01.150Z,98248.00
2018-10-12T18:48:30.376Z,98252.00
2018-10-12T18:50:59.834Z,98244.00
2018-10-12T18:53:29.017Z,98249.00
2018-10-12T18:55:58.210Z,98237.00
2018-10-12T18:58:27.402Z,98242.00
2018-10-12T19:00:56.607Z,98247.00
2018-10-12T19:03:25.803Z,98240.00
2018-10-12T19:05:54.971Z,98242.00
2018-10-12T19:08:24.372Z,98240.00
2018-10-12T19:10:53.559Z,98239.00
2018-10-12T19:13:22.819Z,98236.00
2018-10-12T19:15:52.215Z,98241.00
2018-10-12T19:18:21.415Z,98238.00
2018-10-12T19:20:50.930Z,98241.00
2018-10-12T19:23:20.171Z,98241.00
2018-10-12T19:25:49.368Z,98233.00
2018-10-12T19:28:18.595Z,98226.00
2018-10-12T19:30:47.796Z,98236.00
2018-10-12T19:33:17.029Z,98236.00
2018-10-12T19:35:46.227Z,98228.00
2018-10-12T19:38:15.479Z,98234.00
2018-10-12T19:40:44.657Z,98229.00
2018-10-12T19:43:13.891Z,98235.00
2018-10-12T19:45:43.118Z,98238.00
2018-10-12T19:48:12.722Z,98234.00
2018-10-12T19:50:41.939Z,98237.00
2018-10-12T19:53:11.147Z,98239.00
2018-10-12T19:55:40.367Z,98233.00
2018-10-12T19:58:09.576Z,98252.00
2018-10-12T20:00:39.090Z,98229.00
2018-10-12T20:03:08.311Z,98244.00
2018-10-12T20:05:37.525Z,98232.00
2018-10-12T20:08:06.964Z,98231.00
2018-10-12T20:10:36.285Z,98234.00
2018-10-12T20:13:05.481Z,98234.00
2018-10-12T20:15:34.678Z,98231.00
2018-10-12T20:18:03.882Z,98228.00
2018-10-12T20:20:33.118Z,98228.00
2018-10-12T20:23:02.334Z,98230.00
2018-10-12T20:25:31.514Z,98230.00
2018-10-12T20:28:00.759Z,98233.00
2018-10-12T20:30:29.938Z,98224.00
2018-10-12T20:32:59.129Z,98231.00
2018-10-12T20:35:28.323Z,98230.00
2018-10-12T20:37:57.527Z,98232.00
2018-10-12T20:40:26.731Z,98229.00
2018-10-12T20:42:55.926Z,98206.00
2018-10-12T20:45:25.162Z,98279.00
2018-10-12T20:47:54.362Z,98234.00
2018-10-12T20:50:23.975Z,98235.00
2018-10-12T20:52:53.183Z,98231.00
2018-10-12T20:55:22.398Z,98220.00
2018-10-12T20:57:51.596Z,98234.00
2018-10-12T21:00:20.840Z,98233.00
2018-10-12T21:02:50.708Z,98235.00
2018-10-12T21:05:19.928Z,98228.00
2018-10-12T21:07:49.136Z,98228.00
2018-10-12T21:10:18.359Z,98225.00
2018-10-12T21:12:47.619Z,98235.00
2018-10-12T21:15:16.821Z,98208.00
2018-10-12T21:17:46.044Z,98227.00
2018-10-12T21:20:15.250Z,98226.00
2018-10-12T21:22:44.427Z,98224.00
2018-10-12T21:25:13.646Z,98224.00
2018-10-12T21:27:42.817Z,98225.00
2018-10-12T21:30:12.043Z,98227.00
2018-10-12T21:32:41.226Z,98223.00
2018-10-12T21:35:10.438Z,98224.00
2018-10-12T21:37:39.741Z,98220.00
2018-10-12T21:40:09.053Z,98250.00
2018-10-12T21:42:38.247Z,98228.00
2018-10-12T21:45:07.540Z,98230.00
2018-10-12T21:47:36.738Z,98227.00
2018-10-12T21:50:05.947Z,98224.00
2018-10-12T21:52:35.124Z,98231.00
2018-10-12T21:55:04.539Z,98220.00
2018-10-12T21:57:33.720Z,98224.00
2018-10-12T22:00:03.197Z,98221.00
2018-10-12T22:02:32.417Z,98219.00
2018-10-12T22:05:01.635Z,98220.00
2018-10-12T22:07:30.897Z,98223.00
2018-10-12T22:10:00.128Z,98224.00
2018-10-12T22:12:29.328Z,98215.00
2018-10-12T22:14:58.627Z,98218.00
2018-10-12T22:17:27.835Z,98221.00
2018-10-12T22:19:57.058Z,98202.00
2018-10-12T22:22:26.270Z,98206.00
2018-10-12T22:24:55.500Z,98206.00
2018-10-12T22:27:24.768Z,98199.00
2018-10-12T22:29:53.972Z,98210.00
2018-10-12T22:32:23.442Z,98205.00
2018-10-12T22:34:52.625Z,98208.00
2018-10-12T22:37:21.815Z,98206.00
2018-10-12T22:39:51.023Z,98204.00
2018-10-12T22:42:20.250Z,98213.00
2018-10-12T22:44:49.460Z,98208.00
2018-10-12T22:47:18.656Z,98207.00
2018-10-12T22:49:47.845Z,98222.00
2018-10-12T22:52:17.043Z,98215.00
2018-10-12T22:54:46.238Z,98209.00
2018-10-12T22:57:15.412Z,98204.00
2018-10-12T22:59:44.637Z,98217.00
2018-10-12T23:02:13.819Z,98209.00
2018-10-12T23:04:43.109Z,98205.00
2018-10-12T23:07:12.320Z,98211.00
2018-10-12T23:09:41.544Z,98215.00
2018-10-12T23:12:10.722Z,98207.00
2018-10-12T23:14:39.923Z,98210.00
2018-10-12T23:17:09.094Z,98208.00
2018-10-12T23:19:38.319Z,98207.00
2018-10-12T23:22:07.895Z,98209.00
2018-10-12T23:24:37.091Z,98207.00
2018-10-12T23:27:06.647Z,98202.00
2018-10-12T23:29:35.837Z,98206.00
2018-10-12T23:32:05.019Z,98212.00
2018-10-12T23:34:34.219Z,98206.00
2018-10-12T23:37:03.461Z,98206.00
2018-10-12T23:39:32.679Z,98203.00
2018-10-12T23:42:01.862Z,98199.00
2018-10-12T23:44:31.109Z,98207.00
2018-10-12T23:47:00.337Z,98206.00
2018-10-12T23:49:29.550Z,98208.00
2018-10-12T23:51:58.767Z,98217.00
2018-10-12T23:54:27.965Z,98209.00
2018-10-12T23:56:57.171Z,98221.00
2018-10-12T23:59:26.368Z,98221.00
